createdAt,value
2024-01-05T00:02:01.919Z,64.92
2024-01-05T00:04:33.617Z,62.37
2024-01-05T00:07:05.648Z,53.96
2024-01-05T00:09:37.482Z,52.00
2024-01-05T00:12:10.621Z,55.31
2024-01-05T00:14:42.623Z,57.52
2024-01-05T00:17:14.462Z,60.64
2024-01-05T00:19:46.172Z,60.63
2024-01-05T00:22:18.348Z,66.14
2024-01-05T00:24:48.530Z,62.89
2024-01-05T00:27:20.325Z,55.08
2024-01-05T00:29:52.004Z,50.37
2024-01-05T00:32:23.857Z,52.27
2024-01-05T00:34:55.540Z,54.21
2024-01-05T00:37:27.321Z,55.84
2024-01-05T00:39:59.001Z,57.95
2024-01-05T00:42:30.801Z,60.29
2024-01-05T00:45:01.302Z,61.16
2024-01-05T00:47:33.058Z,61.73
2024-01-05T00:50:05.182Z,65.61
2024-01-05T00:52:36.933Z,64.43
2024-01-05T00:55:11.055Z,52.54
2024-01-05T00:57:43.170Z,49.94
2024-01-05T01:00:14.676Z,52.36
2024-01-05T01:02:46.473Z,54.54
2024-01-05T01:05:18.804Z,55.56
2024-01-05T01:07:50.797Z,57.73
2024-01-05T01:10:22.581Z,60.16
2024-01-05T01:12:54.317Z,61.38
2024-01-05T01:15:26.174Z,61.77
2024-01-05T01:17:58.136Z,65.46
2024-01-05T01:20:29.890Z,66.04
2024-01-05T01:23:02.290Z,53.63
2024-01-05T01:25:33.978Z,49.33
2024-01-05T01:28:06.685Z,50.65
2024-01-05T01:30:38.474Z,53.09
2024-01-05T01:33:10.987Z,54.77
2024-01-05T01:35:42.745Z,56.49
2024-01-05T01:38:14.500Z,57.31
2024-01-05T01:40:49.940Z,58.42
2024-01-05T01:43:23.702Z,59.78
2024-01-05T01:45:58.058Z,60.98
2024-01-05T01:48:32.071Z,61.82
2024-01-05T01:51:05.073Z,65.51
2024-01-05T01:53:36.826Z,61.47
2024-01-05T01:56:12.769Z,51.32
2024-01-05T01:58:46.930Z,49.73
2024-01-05T02:01:18.665Z,51.92
2024-01-05T02:03:51.142Z,53.20
2024-01-05T02:06:23.565Z,55.75
2024-01-05T02:08:55.323Z,57.47
2024-01-05T02:11:27.160Z,58.55
2024-01-05T02:13:59.047Z,58.85
2024-01-05T02:16:30.771Z,59.91
2024-01-05T02:19:02.757Z,59.64
2024-01-05T02:21:42.055Z,59.97
2024-01-05T02:24:14.762Z,61.01
2024-01-05T02:26:47.072Z,64.89
2024-01-05T02:29:23.770Z,64.08
2024-01-05T02:31:55.884Z,49.86
2024-01-05T02:34:26.292Z,48.26
2024-01-05T02:36:58.040Z,49.55
2024-01-05T02:39:29.922Z,50.48
2024-01-05T02:42:01.777Z,52.94
2024-01-05T02:44:33.473Z,54.35
2024-01-05T02:47:05.412Z,54.69
2024-01-05T02:49:37.293Z,55.95
2024-01-05T02:52:09.561Z,55.20
2024-01-05T02:54:41.236Z,56.25
2024-01-05T02:57:12.913Z,57.60
2024-01-05T02:59:44.639Z,57.03
2024-01-05T03:02:16.290Z,57.64
2024-01-05T03:04:48.489Z,56.95
2024-01-05T03:07:20.187Z,56.21
2024-01-05T03:09:52.050Z,56.74
2024-01-05T03:12:23.803Z,57.59
2024-01-05T03:14:55.622Z,57.17
2024-01-05T03:17:27.327Z,57.44
2024-01-05T03:19:59.166Z,57.54
2024-01-05T03:22:32.330Z,57.58
2024-01-05T03:25:04.926Z,57.85
2024-01-05T03:27:36.634Z,58.09
2024-01-05T03:30:12.183Z,58.47
2024-01-05T03:32:44.049Z,58.86
2024-01-05T03:35:16.948Z,58.55
2024-01-05T03:37:49.580Z,58.33
2024-01-05T03:40:21.332Z,58.24
2024-01-05T03:42:52.975Z,58.36
2024-01-05T03:45:24.845Z,58.76
2024-01-05T03:47:57.543Z,59.06
2024-01-05T03:50:29.714Z,59.08
2024-01-05T03:53:01.382Z,59.21
2024-01-05T03:55:33.102Z,60.11
2024-01-05T03:58:04.892Z,60.37
2024-01-05T04:00:36.809Z,60.79
2024-01-05T04:03:08.903Z,60.97
2024-01-05T04:05:39.453Z,61.38
2024-01-05T04:08:12.146Z,60.33
2024-01-05T04:10:43.950Z,61.32
2024-01-05T04:13:15.767Z,61.58
2024-01-05T04:15:47.525Z,61.11
2024-01-05T04:18:19.415Z,61.75
2024-01-05T04:20:49.995Z,61.87
2024-01-05T04:23:21.728Z,64.98
2024-01-05T04:25:53.870Z,69.23
2024-01-05T04:28:24.039Z,57.37
2024-01-05T04:30:55.913Z,49.58
2024-01-05T04:33:27.889Z,49.01
2024-01-05T04:36:00.228Z,50.45
2024-01-05T04:38:33.018Z,52.45
2024-01-05T04:41:05.060Z,53.13
2024-01-05T04:43:37.277Z,54.09
2024-01-05T04:46:07.819Z,55.23
2024-01-05T04:48:39.988Z,55.39
2024-01-05T04:51:12.558Z,57.27
2024-01-05T04:53:44.286Z,57.59
2024-01-05T04:56:16.020Z,58.25
2024-01-05T04:58:47.694Z,59.69
2024-01-05T05:01:20.440Z,59.72
2024-01-05T05:03:52.197Z,61.42
2024-01-05T05:06:23.972Z,61.19
2024-01-05T05:08:56.162Z,61.85
2024-01-05T05:11:26.388Z,66.21
2024-01-05T05:13:58.111Z,69.91
2024-01-05T05:16:29.862Z,55.96
2024-01-05T05:19:01.745Z,49.32
2024-01-05T05:21:35.612Z,49.98
2024-01-05T05:24:07.549Z,51.25
2024-01-05T05:26:39.721Z,52.93
2024-01-05T05:29:09.949Z,53.76
2024-01-05T05:31:41.921Z,54.97
2024-01-05T05:34:12.314Z,57.15
2024-01-05T05:36:44.118Z,57.76
2024-01-05T05:39:17.366Z,58.03
2024-01-05T05:41:49.163Z,58.91
2024-01-05T05:44:20.836Z,60.03
2024-01-05T05:46:52.658Z,60.07
2024-01-05T05:49:24.460Z,61.09
2024-01-05T05:51:56.391Z,60.92
2024-01-05T05:54:28.139Z,60.98
2024-01-05T05:57:01.336Z,65.72
2024-01-05T05:59:31.492Z,65.82
2024-01-05T06:02:04.311Z,58.13
2024-01-05T06:04:36.189Z,49.28
2024-01-05T06:07:08.318Z,49.07
2024-01-05T06:09:40.296Z,50.82
2024-01-05T06:12:12.301Z,52.46
2024-01-05T06:14:44.127Z,54.03
2024-01-05T06:17:16.166Z,54.81
2024-01-05T06:19:48.543Z,55.65
2024-01-05T06:22:20.931Z,56.69
2024-01-05T06:24:52.998Z,56.39
2024-01-05T06:27:32.686Z,58.71
2024-01-05T06:30:11.624Z,58.74
2024-01-05T06:32:44.477Z,59.43
2024-01-05T06:35:16.515Z,59.71
2024-01-05T06:37:48.452Z,60.12
2024-01-05T06:40:20.176Z,61.24
2024-01-05T06:42:52.035Z,68.60
2024-01-05T06:45:24.464Z,66.15
2024-01-05T06:47:56.285Z,54.04
2024-01-05T06:50:29.260Z,49.34
2024-01-05T06:53:01.294Z,50.71
2024-01-05T06:55:33.029Z,53.13
2024-01-05T06:58:05.468Z,54.21
2024-01-05T07:00:39.505Z,55.83
2024-01-05T07:03:12.317Z,57.73
2024-01-05T07:05:44.606Z,58.59
2024-01-05T07:08:16.454Z,60.20
2024-01-05T07:10:48.153Z,60.86
2024-01-05T07:13:19.978Z,61.73
2024-01-05T07:15:51.652Z,61.94
2024-01-05T07:18:23.500Z,67.74
2024-01-05T07:20:55.500Z,55.99
2024-01-05T07:23:27.223Z,49.85
2024-01-05T07:26:01.783Z,51.79
2024-01-05T07:28:34.170Z,54.44
2024-01-05T07:31:08.343Z,56.61
2024-01-05T07:33:43.210Z,58.22
2024-01-05T07:36:15.195Z,59.55
2024-01-05T07:38:46.916Z,60.66
2024-01-05T07:41:20.826Z,61.11
2024-01-05T07:43:52.570Z,63.50
2024-01-05T07:46:27.510Z,62.29
2024-01-05T07:48:59.537Z,50.30
2024-01-05T07:51:32.025Z,50.39
2024-01-05T07:54:03.800Z,53.42
2024-01-05T07:56:40.114Z,55.08
2024-01-05T07:59:12.263Z,57.24
2024-01-05T08:01:44.846Z,58.28
2024-01-05T08:04:17.491Z,59.79
2024-01-05T08:06:52.351Z,60.68
2024-01-05T08:09:24.521Z,61.97
2024-01-05T08:11:56.276Z,65.96
2024-01-05T08:14:28.142Z,60.62
2024-01-05T08:16:59.899Z,49.62
2024-01-05T08:19:31.735Z,47.53
2024-01-05T08:22:04.742Z,49.31
2024-01-05T08:24:36.864Z,51.61
2024-01-05T08:27:08.680Z,54.14
2024-01-05T08:29:41.028Z,55.45
2024-01-05T08:32:12.771Z,55.82
2024-01-05T08:34:44.706Z,57.95
2024-01-05T08:37:16.519Z,58.83
2024-01-05T08:39:48.372Z,59.72
2024-01-05T08:42:20.409Z,60.86
2024-01-05T08:44:52.294Z,61.24
2024-01-05T08:47:24.324Z,61.29
2024-01-05T08:49:56.359Z,61.29
2024-01-05T08:52:28.433Z,61.79
2024-01-05T08:55:00.269Z,64.13
2024-01-05T08:57:32.073Z,59.45
2024-01-05T09:00:04.726Z,48.82
2024-01-05T09:02:36.618Z,47.45
2024-01-05T09:05:09.534Z,49.16
2024-01-05T09:07:41.281Z,50.91
2024-01-05T09:10:13.152Z,53.53
2024-01-05T09:12:45.064Z,54.96
2024-01-05T09:15:19.241Z,55.84
2024-01-05T09:17:52.851Z,55.86
2024-01-05T09:20:24.858Z,57.00
2024-01-05T09:22:56.812Z,58.04
2024-01-05T09:25:28.899Z,58.60
2024-01-05T09:28:06.429Z,58.54
2024-01-05T09:30:38.503Z,59.39
2024-01-05T09:33:10.446Z,60.17
2024-01-05T09:35:42.598Z,60.05
2024-01-05T09:38:14.640Z,59.22
2024-01-05T09:40:47.807Z,59.48
2024-01-05T09:43:23.118Z,60.14
2024-01-05T09:45:58.260Z,60.38
2024-01-05T09:48:36.713Z,59.90
2024-01-05T09:51:16.618Z,58.73
2024-01-05T09:53:49.138Z,59.00
2024-01-05T09:56:22.805Z,58.72
2024-01-05T09:58:57.038Z,59.30
2024-01-05T10:01:31.734Z,59.82
2024-01-05T10:04:05.710Z,59.20
2024-01-05T10:06:37.806Z,59.38
2024-01-05T10:09:10.654Z,58.87
2024-01-05T10:11:43.662Z,58.83
2024-01-05T10:14:15.574Z,58.73
2024-01-05T10:16:49.253Z,59.35
2024-01-05T10:19:23.779Z,58.30
2024-01-05T10:21:55.758Z,58.14
2024-01-05T10:24:31.071Z,57.59
2024-01-05T10:27:06.905Z,57.50
2024-01-05T10:29:43.705Z,57.47
2024-01-05T10:32:21.069Z,58.49
2024-01-05T10:34:55.350Z,57.72
2024-01-05T10:37:27.530Z,58.16
2024-01-05T10:40:04.880Z,58.17
2024-01-05T10:42:36.903Z,58.06
2024-01-05T10:45:10.533Z,58.44
2024-01-05T10:47:45.001Z,58.32
2024-01-05T10:50:19.699Z,58.50
2024-01-05T10:52:52.081Z,57.36
2024-01-05T10:55:24.098Z,56.88
2024-01-05T10:57:56.614Z,56.63
2024-01-05T11:00:28.571Z,56.16
2024-01-05T11:03:11.904Z,56.11
2024-01-05T11:05:47.461Z,55.21
2024-01-05T11:08:35.885Z,54.97
2024-01-05T11:11:18.734Z,55.52
2024-01-05T11:14:09.243Z,56.40
2024-01-05T11:17:04.113Z,55.50
2024-01-05T11:19:56.557Z,55.55
2024-01-05T11:22:33.872Z,55.46
2024-01-05T11:25:08.068Z,55.99
2024-01-05T11:27:40.543Z,56.26
2024-01-05T11:30:13.619Z,55.65
2024-01-05T11:32:47.388Z,55.74
2024-01-05T11:35:45.987Z,55.73
2024-01-05T11:38:31.979Z,55.94
2024-01-05T11:41:19.299Z,55.22
2024-01-05T11:43:52.076Z,55.10
2024-01-05T11:46:47.883Z,55.03
2024-01-05T11:49:39.499Z,55.19
2024-01-05T11:52:11.766Z,54.74
2024-01-05T11:54:42.104Z,54.81
2024-01-05T11:57:14.505Z,54.58
2024-01-05T11:59:48.746Z,55.42
2024-01-05T12:02:22.201Z,55.23
2024-01-05T12:04:54.920Z,55.09
2024-01-05T12:07:31.090Z,54.59
2024-01-05T12:10:02.808Z,55.10
2024-01-05T12:12:34.577Z,55.43
2024-01-05T12:15:13.862Z,55.64
2024-01-05T12:17:45.955Z,55.04
2024-01-05T12:20:17.035Z,55.03
2024-01-05T12:22:53.222Z,55.04
2024-01-05T12:25:24.902Z,54.73
2024-01-05T12:27:57.813Z,55.21
2024-01-05T12:30:29.818Z,56.14
2024-01-05T12:33:02.598Z,55.74
2024-01-05T12:35:34.808Z,56.00
2024-01-05T12:38:07.479Z,56.35
2024-01-05T12:40:39.499Z,56.95
2024-01-05T12:43:13.657Z,57.77
2024-01-05T12:45:49.393Z,57.36
2024-01-05T12:48:21.424Z,58.76
2024-01-05T12:51:04.400Z,59.51
2024-01-05T12:53:36.951Z,60.02
2024-01-05T12:56:17.633Z,60.52
2024-01-05T12:58:50.146Z,60.88
2024-01-05T13:01:23.080Z,61.80
2024-01-05T13:03:57.266Z,61.82
2024-01-05T13:06:31.839Z,61.66
2024-01-05T13:09:03.979Z,61.93
2024-01-05T13:11:35.811Z,67.04
2024-01-05T13:14:08.439Z,69.74
2024-01-05T13:16:40.172Z,54.59
2024-01-05T13:19:12.119Z,49.74
2024-01-05T13:21:43.994Z,50.64
2024-01-05T13:24:15.903Z,52.74
2024-01-05T13:26:47.602Z,53.78
2024-01-05T13:29:19.310Z,54.77
2024-01-05T13:31:51.513Z,56.28
2024-01-05T13:34:23.606Z,56.54
2024-01-05T13:36:56.069Z,58.03
2024-01-05T13:39:28.511Z,59.28
2024-01-05T13:42:00.298Z,60.07
2024-01-05T13:44:32.447Z,60.08
2024-01-05T13:47:02.662Z,61.24
2024-01-05T13:49:34.735Z,61.09
2024-01-05T13:52:07.329Z,67.42
2024-01-05T13:54:39.114Z,61.87
2024-01-05T13:57:10.916Z,51.98
2024-01-05T13:59:42.700Z,49.06
2024-01-05T14:02:14.547Z,51.21
2024-01-05T14:04:46.369Z,53.25
2024-01-05T14:07:18.144Z,55.09
2024-01-05T14:09:49.908Z,56.22
2024-01-05T14:12:21.598Z,57.26
2024-01-05T14:14:53.556Z,59.51
2024-01-05T14:17:25.619Z,60.55
2024-01-05T14:19:57.509Z,60.67
2024-01-05T14:22:29.261Z,60.87
2024-01-05T14:25:01.002Z,61.96
2024-01-05T14:27:32.813Z,68.49
2024-01-05T14:30:05.322Z,62.85
2024-01-05T14:32:37.129Z,52.06
2024-01-05T14:35:11.481Z,48.38
2024-01-05T14:37:43.219Z,49.63
2024-01-05T14:40:18.161Z,51.84
2024-01-05T14:42:49.853Z,53.69
2024-01-05T14:45:21.612Z,55.54
2024-01-05T14:47:53.500Z,56.26
2024-01-05T14:50:25.361Z,57.61
2024-01-05T14:53:04.314Z,58.75
2024-01-05T14:55:43.399Z,59.80
2024-01-05T14:58:13.585Z,60.67
2024-01-05T15:00:45.388Z,61.78
2024-01-05T15:03:17.208Z,61.74
2024-01-05T15:05:49.830Z,66.57
2024-01-05T15:08:22.177Z,67.18
2024-01-05T15:10:54.405Z,54.35
2024-01-05T15:13:26.174Z,50.14
2024-01-05T15:15:59.750Z,51.80
2024-01-05T15:18:33.013Z,53.68
2024-01-05T15:21:07.957Z,55.51
2024-01-05T15:23:42.832Z,57.47
2024-01-05T15:26:15.266Z,58.92
2024-01-05T15:28:46.961Z,59.70
2024-01-05T15:31:22.855Z,60.46
2024-01-05T15:33:57.045Z,60.81
2024-01-05T15:36:29.689Z,61.08
2024-01-05T15:39:01.478Z,61.85
2024-01-05T15:41:33.822Z,67.41
2024-01-05T15:44:05.753Z,65.79
2024-01-05T15:46:37.463Z,51.82
2024-01-05T15:49:09.408Z,50.30
2024-01-05T15:51:41.584Z,52.65
2024-01-05T15:54:13.371Z,55.93
2024-01-05T15:56:45.133Z,57.56
2024-01-05T15:59:16.886Z,58.95
2024-01-05T16:01:51.389Z,59.79
2024-01-05T16:04:23.191Z,61.36
2024-01-05T16:06:55.133Z,65.83
2024-01-05T16:09:26.857Z,65.52
2024-01-05T16:11:59.697Z,52.03
2024-01-05T16:14:31.375Z,48.75
2024-01-05T16:17:03.501Z,51.79
2024-01-05T16:19:34.002Z,53.80
2024-01-05T16:22:06.356Z,54.65
2024-01-05T16:24:38.101Z,57.81
2024-01-05T16:27:10.962Z,59.04
2024-01-05T16:29:42.655Z,60.28
2024-01-05T16:32:15.204Z,61.43
2024-01-05T16:34:47.825Z,61.38
2024-01-05T16:37:19.833Z,61.48
2024-01-05T16:39:51.597Z,66.51
2024-01-05T16:42:23.622Z,58.49
2024-01-05T16:44:55.357Z,52.06
2024-01-05T16:47:27.225Z,53.30
2024-01-05T16:49:59.066Z,55.72
2024-01-05T16:52:30.846Z,56.93
2024-01-05T16:55:02.586Z,59.83
2024-01-05T16:57:34.477Z,61.10
2024-01-05T17:00:08.012Z,64.74
2024-01-05T17:02:39.881Z,61.39
2024-01-05T17:05:12.022Z,51.78
2024-01-05T17:07:44.425Z,50.04
2024-01-05T17:10:16.196Z,52.35
2024-01-05T17:12:49.062Z,54.54
2024-01-05T17:15:20.848Z,56.12
2024-01-05T17:17:53.597Z,58.67
2024-01-05T17:20:26.694Z,59.67
2024-01-05T17:22:59.874Z,60.74
2024-01-05T17:25:31.624Z,61.86
2024-01-05T17:28:03.566Z,65.03
2024-01-05T17:30:35.324Z,59.10
2024-01-05T17:33:08.036Z,51.60
2024-01-05T17:35:39.737Z,52.34
2024-01-05T17:38:12.470Z,54.62
2024-01-05T17:40:45.013Z,56.58
2024-01-05T17:43:17.253Z,57.24
2024-01-05T17:45:49.003Z,58.18
2024-01-05T17:48:21.235Z,59.86
2024-01-05T17:50:54.074Z,62.29
2024-01-05T17:53:25.939Z,66.06
2024-01-05T17:55:57.680Z,61.70
2024-01-05T17:58:29.381Z,51.83
2024-01-05T18:01:01.136Z,49.80
2024-01-05T18:03:32.976Z,52.49
2024-01-05T18:06:09.997Z,54.76
2024-01-05T18:08:41.981Z,55.62
2024-01-05T18:11:24.250Z,59.22
2024-01-05T18:13:56.393Z,60.75
2024-01-05T18:16:30.436Z,61.63
2024-01-05T18:19:02.707Z,66.40
2024-01-05T18:21:34.545Z,60.51
2024-01-05T18:24:07.536Z,50.11
2024-01-05T18:26:40.434Z,50.77
2024-01-05T18:29:21.783Z,53.45
2024-01-05T18:32:00.626Z,56.28
2024-01-05T18:34:32.644Z,57.37
2024-01-05T18:37:04.826Z,60.07
2024-01-05T18:39:38.047Z,60.60
2024-01-05T18:42:10.298Z,61.07
2024-01-05T18:44:44.462Z,64.70
2024-01-05T18:47:16.744Z,63.59
2024-01-05T18:49:48.635Z,51.72
2024-01-05T18:52:19.382Z,51.31
2024-01-05T18:54:51.501Z,52.95
2024-01-05T18:57:21.773Z,56.55
2024-01-05T18:59:53.756Z,57.31
2024-01-05T19:02:25.453Z,60.05
2024-01-05T19:04:57.521Z,60.58
2024-01-05T19:07:29.935Z,63.33
2024-01-05T19:10:01.714Z,64.84
2024-01-05T19:12:33.526Z,54.20
2024-01-05T19:15:07.861Z,52.17
2024-01-05T19:17:40.624Z,54.58
2024-01-05T19:20:14.730Z,56.08
2024-01-05T19:22:46.384Z,59.37
2024-01-05T19:25:18.445Z,61.37
2024-01-05T19:27:48.650Z,62.78
2024-01-05T19:30:21.371Z,67.45
2024-01-05T19:32:53.093Z,58.90
2024-01-05T19:35:25.106Z,50.01
2024-01-05T19:37:58.342Z,50.61
2024-01-05T19:40:32.827Z,53.46
2024-01-05T19:43:04.687Z,55.81
2024-01-05T19:45:35.396Z,57.86
2024-01-05T19:48:08.846Z,59.36
2024-01-05T19:50:41.279Z,61.82
2024-01-05T19:53:11.460Z,65.66
2024-01-05T19:55:43.315Z,58.22
2024-01-05T19:58:15.025Z,50.84
2024-01-05T20:00:47.239Z,53.16
2024-01-05T20:03:17.503Z,56.10
2024-01-05T20:05:50.387Z,58.93
2024-01-05T20:08:22.160Z,59.59
2024-01-05T20:10:53.940Z,61.13
2024-01-05T20:13:25.865Z,63.45
2024-01-05T20:15:57.579Z,63.31
2024-01-05T20:18:29.532Z,53.63
2024-01-05T20:21:00.086Z,52.63
2024-01-05T20:23:32.708Z,56.10
2024-01-05T20:26:04.815Z,58.44
2024-01-05T20:28:37.280Z,61.19
2024-01-05T20:31:09.466Z,64.51
2024-01-05T20:33:41.533Z,62.66
2024-01-05T20:36:13.524Z,52.96
2024-01-05T20:38:45.329Z,52.65
2024-01-05T20:41:17.200Z,55.01
2024-01-05T20:43:48.916Z,57.67
2024-01-05T20:46:21.416Z,60.26
2024-01-05T20:48:53.310Z,62.03
2024-01-05T20:51:25.581Z,66.24
2024-01-05T20:53:58.962Z,60.37
2024-01-05T20:56:30.853Z,51.26
2024-01-05T20:59:02.585Z,52.03
2024-01-05T21:01:34.908Z,55.40
2024-01-05T21:04:07.686Z,56.63
2024-01-05T21:06:44.447Z,59.26
2024-01-05T21:09:16.740Z,61.01
2024-01-05T21:11:48.530Z,62.85
2024-01-05T21:14:20.260Z,64.49
2024-01-05T21:16:53.543Z,55.71
2024-01-05T21:19:25.324Z,52.26
2024-01-05T21:21:57.465Z,53.86
2024-01-05T21:24:29.159Z,56.22
2024-01-05T21:27:01.749Z,58.33
2024-01-05T21:29:33.467Z,59.67
2024-01-05T21:32:06.169Z,60.38
2024-01-05T21:34:40.756Z,61.38
2024-01-05T21:37:13.962Z,62.81
2024-01-05T21:39:45.855Z,65.95
2024-01-05T21:42:16.515Z,55.28
2024-01-05T21:44:48.755Z,51.25
2024-01-05T21:47:21.338Z,53.48
2024-01-05T21:49:54.312Z,55.74
2024-01-05T21:52:26.201Z,56.81
2024-01-05T21:54:57.920Z,59.58
2024-01-05T21:57:31.958Z,60.50
2024-01-05T22:00:03.686Z,63.02
2024-01-05T22:02:35.404Z,62.46
2024-01-05T22:05:08.055Z,53.93
2024-01-05T22:07:39.776Z,50.20
2024-01-05T22:10:13.690Z,52.89
2024-01-05T22:12:46.867Z,55.71
2024-01-05T22:15:18.718Z,57.17
2024-01-05T22:17:50.626Z,59.14
2024-01-05T22:20:21.949Z,61.33
2024-01-05T22:22:53.805Z,61.15
2024-01-05T22:25:26.237Z,65.25
2024-01-05T22:27:57.984Z,58.13
2024-01-05T22:30:29.736Z,51.73
2024-01-05T22:33:02.117Z,52.79
2024-01-05T22:35:33.976Z,55.29
2024-01-05T22:38:05.857Z,57.54
2024-01-05T22:40:37.602Z,59.59
2024-01-05T22:43:10.395Z,60.50
2024-01-05T22:45:42.667Z,61.18
2024-01-05T22:48:15.110Z,65.35
2024-01-05T22:50:48.089Z,61.25
2024-01-05T22:53:19.796Z,52.14
2024-01-05T22:55:51.900Z,51.52
2024-01-05T22:58:22.079Z,54.13
2024-01-05T23:00:54.022Z,54.34
2024-01-05T23:03:26.267Z,58.85
2024-01-05T23:05:59.580Z,60.45
2024-01-05T23:08:31.333Z,60.35
2024-01-05T23:11:02.984Z,62.66
2024-01-05T23:13:34.994Z,64.71
2024-01-05T23:16:07.881Z,55.12
2024-01-05T23:18:39.715Z,51.82
2024-01-05T23:21:10.181Z,53.96
2024-01-05T23:23:42.104Z,55.42
2024-01-05T23:26:20.257Z,56.89
2024-01-05T23:28:54.229Z,60.71
2024-01-05T23:31:26.506Z,60.41
2024-01-05T23:34:08.570Z,60.47
2024-01-05T23:36:47.754Z,64.70
2024-01-05T23:39:18.521Z,64.97
2024-01-05T23:41:50.275Z,55.11
2024-01-05T23:44:22.368Z,51.91
2024-01-05T23:46:55.779Z,54.59
2024-01-05T23:49:30.692Z,56.49
2024-01-05T23:52:02.742Z,57.69
2024-01-05T23:54:34.544Z,58.21
2024-01-05T23:57:05.672Z,60.13
2024-01-05T23:59:37.012Z,58.57
